Time;durP1;ratioP1;P1;durP2;ratioP2;P2;SDS_P1;SDS_P2;PMS_P1;PMS_P2;Temp;Humidity;BMP_temperature;BMP_pressure;BME280_temperature;BME280_humidity;BME280_pressure;Samples;Min_cycle;Max_cycle;Signal;HPM_P1;HPM_P2
2021/03/30 00:00:12;;;;;;;2.85;2.30;;;5.20;99.90;;;;;;5011473;28;20130;-75
2021/03/30 00:02:37;;;;;;;3.70;2.28;;;5.00;99.90;;;;;;5013073;28;20152;-74
2021/03/30 00:05:04;;;;;;;3.55;2.47;;;5.00;99.90;;;;;;5016784;28;20083;-76
2021/03/30 00:07:30;;;;;;;6.22;2.75;;;5.40;99.90;;;;;;5022960;28;20075;-75
2021/03/30 00:09:55;;;;;;;5.32;2.42;;;5.70;99.90;;;;;;5015306;28;20503;-75
2021/03/30 00:12:21;;;;;;;4.97;2.67;;;5.40;99.90;;;;;;5021917;28;20128;-75
2021/03/30 00:14:47;;;;;;;3.78;2.50;;;5.50;99.90;;;;;;5024476;28;20086;-76
2021/03/30 00:17:12;;;;;;;5.00;2.45;;;5.30;99.90;;;;;;5010092;28;20085;-76
2021/03/30 00:19:38;;;;;;;5.07;2.42;;;5.20;99.90;;;;;;5025598;28;20101;-76
2021/03/30 00:22:04;;;;;;;4.50;2.75;;;5.10;99.90;;;;;;5021420;28;20150;-75
2021/03/30 00:24:29;;;;;;;3.28;2.40;;;5.00;99.90;;;;;;5012283;28;20075;-75
2021/03/30 00:26:55;;;;;;;3.72;2.50;;;5.00;99.90;;;;;;5008380;28;20079;-76
2021/03/30 00:29:20;;;;;;;6.32;2.80;;;5.00;99.90;;;;;;5008903;28;20090;-76
2021/03/30 00:31:46;;;;;;;6.05;3.00;;;4.90;99.90;;;;;;5011070;28;20559;-76
2021/03/30 00:34:11;;;;;;;5.35;3.00;;;5.00;99.90;;;;;;5020492;28;20161;-75
2021/03/30 00:36:37;;;;;;;5.82;2.35;;;5.20;99.90;;;;;;5025609;28;20575;-75
2021/03/30 00:39:03;;;;;;;5.53;2.72;;;5.20;99.90;;;;;;5018783;28;20466;-76
2021/03/30 00:41:29;;;;;;;5.05;2.83;;;5.10;99.90;;;;;;5019869;28;20086;-76
2021/03/30 00:43:55;;;;;;;4.57;2.55;;;5.00;99.90;;;;;;5020424;28;20094;-76
2021/03/30 00:46:20;;;;;;;4.93;2.55;;;4.90;99.90;;;;;;5009828;28;20106;-76
2021/03/30 00:48:50;;;;;;;2.80;2.08;;;4.80;99.90;;;;;;5016430;28;20104;-75
2021/03/30 00:51:17;;;;;;;3.17;2.53;;;4.70;99.90;;;;;;5026164;28;20090;-75
2021/03/30 00:53:43;;;;;;;4.18;2.30;;;4.60;99.90;;;;;;5010672;28;20094;-76
2021/03/30 00:56:09;;;;;;;3.85;2.60;;;4.60;99.90;;;;;;5008671;28;20541;-76
2021/03/30 00:58:35;;;;;;;2.95;2.13;;;4.50;99.90;;;;;;5011310;28;20144;-76
2021/03/30 01:01:01;;;;;;;5.28;2.72;;;4.50;99.90;;;;;;5011403;28;20082;-74
2021/03/30 01:03:27;;;;;;;8.35;3.10;;;4.50;99.90;;;;;;5024137;28;20090;-76
2021/03/30 01:05:52;;;;;;;6.75;2.65;;;4.40;99.90;;;;;;5019209;28;20074;-76
2021/03/30 01:08:21;;;;;;;3.88;2.35;;;4.30;99.90;;;;;;5018722;28;20180;-76
2021/03/30 01:10:58;;;;;;;6.00;3.63;;;4.30;99.90;;;;;;5010555;28;20541;-76
2021/03/30 01:13:41;;;;;;;4.35;3.03;;;4.30;99.90;;;;;;5015206;28;20070;-75
2021/03/30 01:16:21;;;;;;;4.80;2.80;;;4.30;99.90;;;;;;5027482;28;20504;-76
2021/03/30 01:19:09;;;;;;;4.63;2.38;;;4.40;99.90;;;;;;5021906;28;20189;-75
2021/03/30 01:21:53;;;;;;;6.78;2.42;;;4.50;99.90;;;;;;5018308;28;20136;-76
2021/03/30 01:24:30;;;;;;;4.77;2.50;;;4.60;99.90;;;;;;5012299;28;20078;-75
2021/03/30 01:27:23;;;;;;;4.43;2.75;;;4.70;99.90;;;;;;5010163;28;20351;-76
2021/03/30 01:29:52;;;;;;;5.53;2.85;;;4.80;99.90;;;;;;5027675;28;20085;-75
2021/03/30 01:32:39;;;;;;;4.32;2.35;;;4.70;99.90;;;;;;5038852;28;20112;-73
2021/03/30 01:35:11;;;;;;;6.20;2.97;;;4.60;99.90;;;;;;5025100;28;20070;-76
2021/03/30 01:37:41;;;;;;;3.45;2.22;;;4.40;99.90;;;;;;5014045;28;20133;-76
2021/03/30 01:40:09;;;;;;;5.22;2.35;;;4.40;99.90;;;;;;5011189;28;20071;-76
2021/03/30 01:42:37;;;;;;;3.42;2.10;;;4.30;99.90;;;;;;5017607;28;20101;-76
2021/03/30 01:45:04;;;;;;;3.47;2.03;;;4.30;99.90;;;;;;5016264;28;20162;-74
2021/03/30 01:47:34;;;;;;;3.05;2.03;;;4.30;99.90;;;;;;5014831;28;20149;-75
2021/03/30 01:50:01;;;;;;;3.70;1.75;;;4.30;99.90;;;;;;5023723;28;20135;-76
2021/03/30 01:52:26;;;;;;;3.47;1.83;;;4.40;99.90;;;;;;5019043;28;20082;-76
2021/03/30 01:54:53;;;;;;;6.05;2.08;;;4.40;99.90;;;;;;5019822;28;20085;-76
2021/03/30 01:57:27;;;;;;;6.93;2.20;;;4.40;99.90;;;;;;5015676;28;20615;-75
2021/03/30 01:59:52;;;;;;;3.40;1.92;;;4.40;99.90;;;;;;5017147;28;20090;-76
2021/03/30 02:02:20;;;;;;;4.32;2.53;;;4.60;99.90;;;;;;5013539;28;20101;-76
2021/03/30 02:04:46;;;;;;;6.10;2.42;;;4.70;99.90;;;;;;5011625;28;20078;-76
2021/03/30 02:07:15;;;;;;;3.95;2.05;;;4.70;99.90;;;;;;5017863;28;20421;-76
2021/03/30 02:09:43;;;;;;;3.13;2.20;;;4.80;99.90;;;;;;5029302;28;20641;-76
2021/03/30 02:12:15;;;;;;;2.83;2.17;;;4.90;99.90;;;;;;5027352;28;20075;-75
2021/03/30 02:14:42;;;;;;;3.15;2.15;;;5.10;99.90;;;;;;5031086;28;20085;-76
2021/03/30 02:17:19;;;;;;;3.08;1.90;;;5.00;99.90;;;;;;5022226;28;20073;-75
2021/03/30 02:20:00;;;;;;;5.13;1.98;;;4.90;99.90;;;;;;5019456;28;20096;-76
2021/03/30 02:22:29;;;;;;;3.13;1.80;;;4.80;99.90;;;;;;5022805;28;20113;-76
2021/03/30 02:24:58;;;;;;;4.03;1.70;;;4.70;99.90;;;;;;5019675;28;20165;-76
2021/03/30 02:27:25;;;;;;;3.25;2.22;;;4.70;99.90;;;;;;5019495;28;20086;-75
2021/03/30 02:29:54;;;;;;;3.33;1.80;;;4.70;99.90;;;;;;5024981;28;20078;-76
2021/03/30 02:32:23;;;;;;;4.60;1.70;;;5.00;99.90;;;;;;5035651;28;20075;-76
2021/03/30 02:34:51;;;;;;;2.72;1.75;;;5.10;99.90;;;;;;5010809;28;20081;-75
2021/03/30 02:37:19;;;;;;;3.03;2.30;;;5.10;99.90;;;;;;5017771;28;20448;-76
2021/03/30 02:39:47;;;;;;;4.03;1.60;;;5.30;99.90;;;;;;5012941;28;20091;-76
2021/03/30 02:42:15;;;;;;;4.43;1.85;;;5.20;99.90;;;;;;5019777;28;20085;-76
2021/03/30 02:44:44;;;;;;;1.95;1.35;;;5.20;99.90;;;;;;5020563;28;20082;-76
2021/03/30 02:47:10;;;;;;;2.97;1.50;;;5.10;99.90;;;;;;5024169;28;20549;-76
2021/03/30 02:49:36;;;;;;;2.67;1.73;;;4.90;99.90;;;;;;5015042;28;20106;-77
2021/03/30 02:52:03;;;;;;;4.85;1.90;;;4.90;99.90;;;;;;5026641;28;20078;-76
2021/03/30 02:54:29;;;;;;;3.35;2.13;;;5.00;99.90;;;;;;5021161;28;20537;-76
2021/03/30 02:56:59;;;;;;;2.75;1.80;;;4.90;99.90;;;;;;5015759;28;20078;-75
2021/03/30 02:59:28;;;;;;;5.68;1.83;;;4.90;99.90;;;;;;5027309;28;20086;-76
2021/03/30 03:01:54;;;;;;;4.13;2.13;;;4.90;99.90;;;;;;5023212;28;20121;-75
2021/03/30 03:04:20;;;;;;;3.67;1.60;;;5.00;99.90;;;;;;5010915;28;20078;-76
2021/03/30 03:06:46;;;;;;;5.75;2.03;;;5.20;99.90;;;;;;5023820;28;20191;-77
2021/03/30 03:09:12;;;;;;;3.25;1.90;;;5.20;99.90;;;;;;5028146;28;20120;-76
2021/03/30 03:11:44;;;;;;;3.55;1.50;;;5.30;99.90;;;;;;5027873;28;20113;-77
2021/03/30 03:14:12;;;;;;;2.13;1.45;;;5.30;99.90;;;;;;5021421;28;20074;-77
2021/03/30 03:16:38;;;;;;;3.75;2.25;;;5.40;99.90;;;;;;5019286;28;20598;-77
2021/03/30 03:19:06;;;;;;;3.25;2.10;;;5.40;99.90;;;;;;5029516;28;20098;-77
2021/03/30 03:21:32;;;;;;;2.33;1.80;;;5.50;99.90;;;;;;5026566;28;20161;-75
2021/03/30 03:23:58;;;;;;;3.42;1.48;;;5.50;99.90;;;;;;5011684;28;20526;-77
2021/03/30 03:26:24;;;;;;;2.70;1.58;;;5.40;99.90;;;;;;5013982;28;20074;-77
2021/03/30 03:28:50;;;;;;;2.10;1.42;;;5.30;99.90;;;;;;5018054;28;20098;-77
2021/03/30 03:31:15;;;;;;;2.33;1.55;;;5.30;99.90;;;;;;5027016;28;20078;-77
2021/03/30 03:33:42;;;;;;;5.50;1.73;;;5.00;99.90;;;;;;5022305;28;20090;-77
2021/03/30 03:36:10;;;;;;;2.63;1.90;;;4.60;99.90;;;;;;5011113;28;20192;-76
2021/03/30 03:38:45;;;;;;;5.82;1.88;;;4.80;99.90;;;;;;5013251;28;20102;-78
2021/03/30 03:41:14;;;;;;;;;;;4.90;99.90;;;;;;5024662;28;20741;-76
2021/03/30 03:43:40;;;;;;;1.85;1.40;;;5.00;99.90;;;;;;5022502;28;19985;-76
2021/03/30 03:46:06;;;;;;;4.78;1.90;;;5.10;99.90;;;;;;5012037;28;20078;-77
2021/03/30 03:48:32;;;;;;;2.30;1.70;;;5.20;99.90;;;;;;5015574;28;20181;-77
2021/03/30 03:51:01;;;;;;;4.63;1.70;;;5.30;99.90;;;;;;5023324;28;20086;-77
2021/03/30 03:53:28;;;;;;;3.63;1.52;;;5.20;99.90;;;;;;5027191;28;20071;-77
2021/03/30 03:55:55;;;;;;;3.42;1.63;;;5.00;99.90;;;;;;5011130;28;20759;-77
2021/03/30 03:58:28;;;;;;;4.80;1.65;;;5.00;99.90;;;;;;5010522;28;20480;-78
2021/03/30 04:00:54;;;;;;;3.47;1.80;;;5.10;99.90;;;;;;5011267;28;20081;-77
2021/03/30 04:03:26;;;;;;;2.72;1.70;;;5.10;99.90;;;;;;5013730;28;20098;-76
2021/03/30 04:06:12;;;;;;;4.00;1.55;;;5.10;99.90;;;;;;5025887;28;20073;-77
2021/03/30 04:08:52;;;;;;;4.75;1.90;;;5.00;99.90;;;;;;5024555;28;20090;-78
2021/03/30 04:11:19;;;;;;;5.60;1.92;;;4.80;99.90;;;;;;5022029;28;20074;-78
2021/03/30 04:13:47;;;;;;;3.13;1.58;;;4.80;99.90;;;;;;5024728;28;20219;-76
2021/03/30 04:16:13;;;;;;;1.83;1.58;;;4.80;99.90;;;;;;5013666;28;20137;-78
2021/03/30 04:18:40;;;;;;;4.07;1.77;;;4.70;99.90;;;;;;5018696;28;20571;-78
2021/03/30 04:21:30;;;;;;;4.07;2.00;;;4.80;99.90;;;;;;5019967;28;20074;-78
2021/03/30 04:23:57;;;;;;;3.35;1.90;;;4.80;99.90;;;;;;5024214;28;20093;-77
2021/03/30 04:26:23;;;;;;;4.85;1.77;;;4.80;99.90;;;;;;5019398;28;20070;-76
2021/03/30 04:28:49;;;;;;;3.20;1.70;;;4.80;99.90;;;;;;5012524;28;20185;-76
2021/03/30 04:31:15;;;;;;;1.70;1.40;;;4.70;99.90;;;;;;5011679;28;20149;-75
2021/03/30 04:33:41;;;;;;;2.53;1.85;;;4.90;99.90;;;;;;5021691;28;20152;-77
2021/03/30 04:36:08;;;;;;;2.58;1.90;;;4.80;99.90;;;;;;5025136;28;20491;-77
2021/03/30 04:38:33;;;;;;;4.05;1.67;;;4.80;99.90;;;;;;5015450;28;20148;-77
2021/03/30 04:40:59;;;;;;;3.08;1.90;;;4.80;99.90;;;;;;5015262;28;20114;-76
2021/03/30 04:43:24;;;;;;;3.60;1.50;;;4.70;99.90;;;;;;5016824;28;20109;-77
2021/03/30 04:45:50;;;;;;;3.70;1.67;;;4.70;99.90;;;;;;5015215;28;20074;-76
2021/03/30 04:48:16;;;;;;;2.33;1.98;;;4.60;99.90;;;;;;5019231;28;20128;-77
2021/03/30 04:50:42;;;;;;;7.85;1.85;;;4.80;99.90;;;;;;5028311;28;20105;-78
2021/03/30 04:53:09;;;;;;;1.77;1.63;;;4.80;99.90;;;;;;5017431;28;20086;-76
2021/03/30 04:55:35;;;;;;;1.88;1.52;;;4.80;99.90;;;;;;5026139;28;20096;-77
2021/03/30 04:58:00;;;;;;;3.58;1.80;;;4.80;99.90;;;;;;5021552;28;20101;-77
2021/03/30 05:00:26;;;;;;;5.05;1.80;;;4.90;99.90;;;;;;5017810;28;20078;-77
2021/03/30 05:02:51;;;;;;;3.45;1.70;;;5.00;99.90;;;;;;5025863;28;20136;-79
2021/03/30 05:05:17;;;;;;;4.97;1.98;;;5.00;99.90;;;;;;5029176;28;20104;-77
2021/03/30 05:07:43;;;;;;;3.70;1.95;;;5.10;99.90;;;;;;5020958;28;20467;-77
2021/03/30 05:10:09;;;;;;;4.25;2.45;;;5.10;99.90;;;;;;5014291;28;20161;-76
2021/03/30 05:12:35;;;;;;;2.95;1.80;;;5.00;99.90;;;;;;5037865;28;20445;-76
2021/03/30 05:15:00;;;;;;;5.85;2.47;;;5.10;99.90;;;;;;5011043;28;20106;-77
2021/03/30 05:17:26;;;;;;;1.83;1.50;;;5.00;99.90;;;;;;5014324;28;20063;-77
2021/03/30 05:19:51;;;;;;;6.18;1.90;;;5.00;99.90;;;;;;5018073;28;20782;-76
2021/03/30 05:22:17;;;;;;;3.65;2.00;;;5.00;99.90;;;;;;5018910;28;20108;-75
2021/03/30 05:24:43;;;;;;;2.33;1.60;;;5.20;99.90;;;;;;5022327;28;20153;-76
2021/03/30 05:27:08;;;;;;;2.65;1.73;;;5.50;99.90;;;;;;5023362;28;20088;-76
2021/03/30 05:29:43;;;;;;;3.70;1.73;;;5.60;99.90;;;;;;5027806;28;20090;-75
2021/03/30 05:32:18;;;;;;;7.53;2.13;;;5.70;99.90;;;;;;5014385;28;20455;-76
2021/03/30 05:34:49;;;;;;;5.57;1.80;;;5.90;99.90;;;;;;5014695;28;20548;-76
2021/03/30 05:37:15;;;;;;;3.03;1.65;;;5.90;99.90;;;;;;5021779;28;20165;-77
2021/03/30 05:39:41;;;;;;;8.27;2.13;;;6.10;99.90;;;;;;5012650;28;20198;-77
2021/03/30 05:42:07;;;;;;;4.63;1.67;;;5.90;99.90;;;;;;5017815;28;20090;-76
2021/03/30 05:44:34;;;;;;;5.15;1.58;;;6.10;99.90;;;;;;5024109;28;20082;-76
2021/03/30 05:47:18;;;;;;;4.38;1.80;;;6.30;99.90;;;;;;5031209;28;20540;-75
2021/03/30 05:49:44;;;;;;;2.75;1.70;;;6.40;99.90;;;;;;5020322;28;20515;-77
2021/03/30 05:52:31;;;;;;;9.50;1.85;;;6.40;99.90;;;;;;5019709;28;20113;-77
2021/03/30 05:54:58;;;;;;;3.30;1.50;;;6.50;99.90;;;;;;5020820;28;20085;-76
2021/03/30 05:57:28;;;;;;;3.03;1.70;;;6.70;99.90;;;;;;5024765;28;20082;-78
2021/03/30 05:59:56;;;;;;;3.45;1.52;;;6.80;99.90;;;;;;5018360;28;20638;-76
2021/03/30 06:02:27;;;;;;;2.13;1.58;;;6.90;99.90;;;;;;5013537;28;20101;-76
2021/03/30 06:04:54;;;;;;;5.95;1.83;;;7.10;99.90;;;;;;5014718;28;20081;-77
2021/03/30 06:07:19;;;;;;;7.20;2.35;;;7.10;99.90;;;;;;5017824;28;20203;-77
2021/03/30 06:09:46;;;;;;;2.90;1.70;;;7.30;99.90;;;;;;5029208;28;20098;-76
2021/03/30 06:12:16;;;;;;;3.58;1.83;;;7.40;99.90;;;;;;5016984;28;20506;-76
2021/03/30 06:14:44;;;;;;;4.30;1.50;;;7.60;99.90;;;;;;5019192;28;20098;-77
2021/03/30 06:17:13;;;;;;;2.35;1.63;;;7.70;99.90;;;;;;5016467;28;20075;-77
2021/03/30 06:19:57;;;;;;;5.78;1.70;;;7.80;99.90;;;;;;5012494;28;20162;-76
2021/03/30 06:22:26;;;;;;;2.42;2.00;;;8.00;99.90;;;;;;5024922;28;20605;-76
2021/03/30 06:24:54;;;;;;;2.78;1.45;;;8.10;99.90;;;;;;5026651;28;20074;-75
2021/03/30 06:27:25;;;;;;;2.30;1.48;;;8.20;99.90;;;;;;5031585;28;20086;-77
2021/03/30 06:29:53;;;;;;;4.03;1.40;;;8.30;99.90;;;;;;5022452;28;20124;-75
2021/03/30 06:32:21;;;;;;;3.60;1.48;;;8.50;99.90;;;;;;5024763;28;20444;-76
2021/03/30 06:34:50;;;;;;;2.28;1.25;;;8.60;99.90;;;;;;5015200;28;20133;-76
2021/03/30 06:37:38;;;;;;;4.60;1.00;;;8.80;99.90;;;;;;5011844;28;20136;-75
2021/03/30 06:40:29;;;;;;;4.43;1.40;;;8.90;99.90;;;;;;5023160;28;20070;-76
2021/03/30 06:43:11;;;;;;;4.10;1.48;;;9.10;99.90;;;;;;5015170;28;20533;-77
2021/03/30 06:45:37;;;;;;;2.67;1.25;;;9.30;99.90;;;;;;5022912;28;20078;-76
2021/03/30 06:48:04;;;;;;;4.35;1.50;;;9.40;99.90;;;;;;5030202;28;20097;-77
2021/03/30 06:50:32;;;;;;;4.00;2.08;;;9.50;99.90;;;;;;5025305;28;20077;-77
2021/03/30 06:53:18;;;;;;;2.90;1.58;;;9.70;99.90;;;;;;5015730;28;20117;-77
2021/03/30 06:55:51;;;;;;;2.10;1.55;;;9.70;99.90;;;;;;5017500;28;20169;-76
2021/03/30 06:58:18;;;;;;;4.00;1.40;;;9.90;99.90;;;;;;5020770;28;20152;-76
2021/03/30 07:00:45;;;;;;;4.00;1.20;;;10.10;99.20;;;;;;5027259;28;20101;-75
2021/03/30 07:03:19;;;;;;;4.03;1.38;;;10.20;98.10;;;;;;5021690;28;20675;-76
2021/03/30 07:05:50;;;;;;;3.25;1.25;;;10.50;97.90;;;;;;5018359;28;20091;-75
2021/03/30 07:08:20;;;;;;;3.75;1.60;;;10.60;98.50;;;;;;5018444;28;20101;-75
2021/03/30 07:10:48;;;;;;;3.60;1.52;;;10.70;98.30;;;;;;5026482;28;20533;-76
2021/03/30 07:13:16;;;;;;;4.20;1.80;;;10.80;98.60;;;;;;5029401;28;20524;-76
2021/03/30 07:15:42;;;;;;;3.85;1.60;;;11.00;98.30;;;;;;5023391;28;20084;-76
2021/03/30 07:18:43;;;;;;;3.78;1.00;;;11.10;98.80;;;;;;5020317;28;20130;-77
2021/03/30 07:21:27;;;;;;;1.90;1.23;;;11.00;96.60;;;;;;5020265;28;20117;-76
2021/03/30 07:23:56;;;;;;;3.75;1.50;;;11.30;95.90;;;;;;5015592;28;20181;-77
2021/03/30 07:26:44;;;;;;;3.08;1.60;;;11.30;97.10;;;;;;5018151;28;20066;-76
2021/03/30 07:29:18;;;;;;;3.03;1.52;;;11.70;95.40;;;;;;5024457;28;20085;-75
2021/03/30 07:32:11;;;;;;;2.60;1.42;;;11.80;95.70;;;;;;5015545;28;20120;-77
2021/03/30 07:34:56;;;;;;;2.47;1.25;;;11.70;94.20;;;;;;5013218;28;20074;-76
2021/03/30 07:37:33;;;;;;;4.88;1.85;;;11.60;94.90;;;;;;5022178;28;20071;-77
2021/03/30 07:40:00;;;;;;;3.55;1.40;;;12.00;94.80;;;;;;5018568;28;20101;-78
2021/03/30 07:42:27;;;;;;;2.67;1.55;;;12.20;94.70;;;;;;5027145;28;20086;-78
2021/03/30 07:44:54;;;;;;;3.00;1.45;;;12.30;93.30;;;;;;5028545;28;20070;-77
2021/03/30 07:47:21;;;;;;;1.90;1.55;;;12.30;93.30;;;;;;5019542;28;20084;-78
2021/03/30 07:49:54;;;;;;;3.10;1.90;;;12.00;92.40;;;;;;5019952;28;20086;-76
2021/03/30 07:52:29;;;;;;;5.75;1.60;;;12.10;93.00;;;;;;5027328;28;20614;-77
2021/03/30 07:55:13;;;;;;;;;;;12.10;92.20;;;;;;5027167;28;20077;-76
2021/03/30 07:57:59;;;;;;;2.30;1.20;;;11.90;93.30;;;;;;5015543;28;20011;-76
2021/03/30 08:00:33;;;;;;;4.55;1.17;;;12.10;93.60;;;;;;5040992;28;20093;-77
2021/03/30 08:03:07;;;;;;;4.63;1.98;;;12.60;92.50;;;;;;5019887;28;20085;-77
2021/03/30 08:05:33;;;;;;;4.75;1.60;;;12.90;91.40;;;;;;5010500;28;20070;-77
2021/03/30 08:08:00;;;;;;;2.95;1.70;;;12.80;92.20;;;;;;5023994;28;20201;-77
2021/03/30 08:10:30;;;;;;;7.47;2.08;;;12.70;91.10;;;;;;5021580;28;20146;-76
2021/03/30 08:13:21;;;;;;;3.88;1.40;;;12.60;92.00;;;;;;5027658;28;20141;-76
2021/03/30 08:15:49;;;;;;;3.72;1.80;;;12.70;92.50;;;;;;5021184;28;20084;-77
2021/03/30 08:18:18;;;;;;;5.90;1.88;;;13.00;92.90;;;;;;5014285;28;20097;-77
2021/03/30 08:20:55;;;;;;;4.28;1.90;;;12.80;93.50;;;;;;5017407;28;20157;-77
2021/03/30 08:23:21;;;;;;;9.15;2.30;;;12.80;95.50;;;;;;5028764;28;20081;-78
2021/03/30 08:25:50;;;;;;;6.50;2.00;;;13.00;94.80;;;;;;5019645;28;20076;-80
2021/03/30 08:28:47;;;;;;;6.70;2.38;;;12.90;95.10;;;;;;5030845;28;20143;-82
2021/03/30 08:31:18;;;;;;;5.15;2.08;;;12.80;94.80;;;;;;5019348;28;20077;-79
2021/03/30 08:33:44;;;;;;;6.10;2.30;;;13.00;93.50;;;;;;5027894;28;20123;-77
2021/03/30 08:36:19;;;;;;;5.93;2.25;;;13.20;94.60;;;;;;5016153;28;20153;-78
2021/03/30 08:38:48;;;;;;;5.95;2.70;;;13.30;95.20;;;;;;5022140;28;20514;-78
2021/03/30 08:41:43;;;;;;;7.88;2.60;;;13.30;93.60;;;;;;5016504;28;20143;-78
2021/03/30 08:44:27;;;;;;;5.22;2.10;;;13.40;93.20;;;;;;5018504;28;20096;-78
2021/03/30 08:46:56;;;;;;;6.30;2.20;;;13.30;93.90;;;;;;5021910;28;20078;-76
2021/03/30 08:49:43;;;;;;;6.82;3.08;;;13.40;94.80;;;;;;5022665;28;20102;-77
2021/03/30 08:52:13;;;;;;;3.40;2.60;;;13.40;94.70;;;;;;5032090;28;20074;-76
2021/03/30 08:54:49;;;;;;;6.28;3.03;;;13.30;95.10;;;;;;5045576;28;20093;-76
2021/03/30 08:57:25;;;;;;;7.65;2.70;;;13.40;95.20;;;;;;5042762;28;20072;-77
2021/03/30 08:59:51;;;;;;;6.88;3.50;;;13.40;94.80;;;;;;5014411;28;20122;-78
2021/03/30 09:02:24;;;;;;;4.43;2.47;;;13.50;95.10;;;;;;5018972;28;20098;-76
2021/03/30 09:04:51;;;;;;;4.85;2.50;;;13.70;94.20;;;;;;5023717;28;20070;-76
2021/03/30 09:07:17;;;;;;;4.03;2.60;;;13.80;93.60;;;;;;5021166;28;20074;-77
2021/03/30 09:09:43;;;;;;;9.38;2.90;;;13.90;94.30;;;;;;5016056;28;20828;-76
2021/03/30 09:12:17;;;;;;;5.32;2.92;;;13.80;93.00;;;;;;5019688;28;20097;-76
2021/03/30 09:14:57;;;;;;;9.50;2.75;;;14.10;94.90;;;;;;5020619;28;20082;-77
2021/03/30 09:17:23;;;;;;;5.07;3.15;;;13.90;94.00;;;;;;5025601;28;20713;-75
2021/03/30 09:19:50;;;;;;;6.57;3.40;;;14.10;93.70;;;;;;5015827;28;20126;-76
2021/03/30 09:22:27;;;;;;;5.70;3.60;;;14.20;94.10;;;;;;5019319;28;20556;-76
2021/03/30 09:27:32;;;;;;;5.80;3.67;;;14.60;92.80;;;;;;5029624;28;20168;-78
2021/03/30 09:30:00;;;;;;;5.85;3.00;;;14.40;93.00;;;;;;5024413;28;20208;-76
2021/03/30 09:32:28;;;;;;;7.07;3.80;;;14.50;95.40;;;;;;5014627;28;20086;-76
2021/03/30 09:35:02;;;;;;;8.20;4.03;;;14.60;92.30;;;;;;5020976;28;20549;-77
2021/03/30 09:37:45;;;;;;;4.72;3.75;;;14.80;92.10;;;;;;5013803;28;20100;-75
2021/03/30 09:40:13;;;;;;;6.65;3.83;;;14.90;91.50;;;;;;5012055;28;20437;-76
2021/03/30 09:42:43;;;;;;;8.52;3.95;;;15.00;92.70;;;;;;5021368;28;20096;-76
2021/03/30 09:45:11;;;;;;;9.50;4.25;;;14.90;92.80;;;;;;5011224;28;20066;-76
2021/03/30 09:47:38;;;;;;;7.18;4.25;;;15.20;93.60;;;;;;5018810;28;20487;-78
2021/03/30 09:50:04;;;;;;;8.20;4.53;;;15.00;91.80;;;;;;5011137;28;20074;-78
2021/03/30 09:52:31;;;;;;;7.80;4.15;;;15.10;92.20;;;;;;5023802;28;20120;-76
2021/03/30 09:54:58;;;;;;;7.97;4.68;;;15.20;91.80;;;;;;5019010;28;20463;-77
2021/03/30 09:57:27;;;;;;;6.85;3.97;;;15.30;91.50;;;;;;5010845;28;20487;-78
2021/03/30 09:59:53;;;;;;;6.28;4.30;;;15.30;88.60;;;;;;5016320;28;20092;-76
2021/03/30 10:02:24;;;;;;;8.07;4.53;;;15.40;89.60;;;;;;5019115;28;20548;-77
2021/03/30 10:05:08;;;;;;;7.20;4.88;;;15.70;87.30;;;;;;5015257;28;20165;-78
2021/03/30 10:07:35;;;;;;;10.77;4.87;;;15.80;84.80;;;;;;5021086;28;20078;-77
2021/03/30 10:10:01;;;;;;;8.00;4.53;;;15.90;84.70;;;;;;5011777;28;20084;-76
2021/03/30 10:12:37;;;;;;;6.40;4.90;;;15.80;84.50;;;;;;5008808;28;20075;-77
2021/03/30 10:15:06;;;;;;;11.80;5.55;;;16.10;81.90;;;;;;5025217;28;20067;-77
2021/03/30 10:17:32;;;;;;;9.95;4.93;;;16.00;82.70;;;;;;5029494;28;20080;-76
2021/03/30 10:19:59;;;;;;;12.50;5.53;;;15.90;80.60;;;;;;5022479;28;20553;-75
2021/03/30 10:22:31;;;;;;;8.52;5.28;;;15.90;80.00;;;;;;5027974;28;20105;-76
2021/03/30 10:25:09;;;;;;;7.78;5.40;;;16.00;80.00;;;;;;5023547;28;20074;-76
2021/03/30 10:27:36;;;;;;;8.93;5.28;;;16.00;79.80;;;;;;5011990;28;20086;-77
2021/03/30 10:30:04;;;;;;;7.07;5.35;;;16.20;81.20;;;;;;5013220;28;20153;-77
2021/03/30 10:32:48;;;;;;;8.98;5.75;;;16.40;81.70;;;;;;5028079;28;20506;-76
2021/03/30 10:35:14;;;;;;;9.82;5.22;;;16.30;81.60;;;;;;5017225;28;20132;-76
2021/03/30 10:37:41;;;;;;;7.82;5.65;;;16.30;81.40;;;;;;5016619;28;20125;-76
2021/03/30 10:40:07;;;;;;;8.68;5.82;;;16.30;80.70;;;;;;5015890;28;20073;-76
2021/03/30 10:42:37;;;;;;;7.95;5.45;;;16.40;78.30;;;;;;5021182;28;20750;-76
2021/03/30 10:45:08;;;;;;;7.90;5.90;;;16.50;79.20;;;;;;5020056;28;20132;-77
2021/03/30 10:47:36;;;;;;;8.27;5.07;;;16.50;79.50;;;;;;5025723;28;20070;-77
2021/03/30 10:50:05;;;;;;;12.00;6.30;;;16.50;77.10;;;;;;5019622;28;20126;-77
2021/03/30 10:52:35;;;;;;;8.23;5.90;;;16.50;76.40;;;;;;5024582;28;20089;-77
2021/03/30 10:55:05;;;;;;;8.77;5.70;;;16.50;78.50;;;;;;5026995;28;20079;-77
2021/03/30 10:57:35;;;;;;;10.93;6.28;;;16.60;79.60;;;;;;5025550;28;20078;-78
2021/03/30 11:00:02;;;;;;;10.00;5.60;;;16.50;76.00;;;;;;5018446;28;20070;-78
2021/03/30 11:02:28;;;;;;;9.45;5.82;;;16.40;79.30;;;;;;5023000;28;20460;-77
2021/03/30 11:04:54;;;;;;;8.38;5.78;;;16.40;80.30;;;;;;5012739;28;20070;-78
2021/03/30 11:07:19;;;;;;;9.60;6.40;;;17.20;81.40;;;;;;5020615;28;20105;-77
2021/03/30 11:09:45;;;;;;;8.48;5.07;;;17.20;79.20;;;;;;5016695;28;20599;-78
2021/03/30 11:12:12;;;;;;;11.95;6.05;;;17.20;78.90;;;;;;5014052;28;20078;-78
2021/03/30 11:14:38;;;;;;;9.35;5.75;;;17.30;79.80;;;;;;5014048;28;20078;-77
2021/03/30 11:17:03;;;;;;;9.52;5.93;;;17.40;76.70;;;;;;5010069;28;20140;-77
2021/03/30 11:19:29;;;;;;;9.18;5.53;;;17.40;76.50;;;;;;5014694;28;20087;-78
2021/03/30 11:21:56;;;;;;;8.38;5.38;;;17.50;76.20;;;;;;5017793;28;20149;-78
2021/03/30 11:24:24;;;;;;;8.73;5.55;;;17.50;78.20;;;;;;5014172;28;20137;-78
2021/03/30 11:26:52;;;;;;;7.80;5.28;;;17.40;74.60;;;;;;5012427;28;20529;-78
2021/03/30 11:29:27;;;;;;;9.88;5.25;;;17.30;76.70;;;;;;5016092;28;20090;-78
2021/03/30 11:34:42;;;;;;;12.10;6.32;;;17.50;77.20;;;;;;5026363;28;20454;-79
2021/03/30 11:39:34;;;;;;;7.95;4.90;;;17.80;77.70;;;;;;5015485;28;20460;-79
2021/03/30 11:42:00;;;;;;;7.25;5.28;;;17.90;73.00;;;;;;5017642;28;20074;-77
2021/03/30 11:44:25;;;;;;;9.35;5.70;;;17.90;75.50;;;;;;5012553;28;20096;-77
2021/03/30 11:46:51;;;;;;;9.55;5.22;;;17.90;69.60;;;;;;5011135;28;20571;-78
2021/03/30 11:49:16;;;;;;;8.52;5.45;;;17.80;73.30;;;;;;5023979;28;20111;-77
2021/03/30 11:51:42;;;;;;;7.43;5.10;;;17.80;72.80;;;;;;5023267;28;20200;-77
2021/03/30 11:54:08;;;;;;;10.13;5.68;;;17.80;71.30;;;;;;5025376;28;20164;-78
2021/03/30 11:56:34;;;;;;;9.38;5.22;;;17.80;68.90;;;;;;5020617;28;20102;-77
2021/03/30 11:58:59;;;;;;;7.15;4.82;;;17.70;69.80;;;;;;5024957;28;20098;-77
2021/03/30 12:01:25;;;;;;;7.72;4.95;;;17.90;71.00;;;;;;5029713;28;20420;-78
2021/03/30 12:03:51;;;;;;;10.98;4.95;;;18.00;68.40;;;;;;5029021;28;20707;-78
2021/03/30 12:06:16;;;;;;;8.82;5.22;;;17.70;67.80;;;;;;5021250;28;20066;-78
2021/03/30 12:08:42;;;;;;;7.35;4.88;;;18.20;71.20;;;;;;5018561;28;20165;-77
2021/03/30 12:11:07;;;;;;;6.80;4.30;;;18.30;69.70;;;;;;5012467;28;20085;-76
2021/03/30 12:13:33;;;;;;;7.78;4.07;;;18.10;69.80;;;;;;5012565;28;20093;-77
2021/03/30 12:15:59;;;;;;;7.90;5.40;;;18.10;66.90;;;;;;5012017;28;20074;-77
2021/03/30 12:18:24;;;;;;;10.27;6.03;;;18.10;68.90;;;;;;5026155;28;20113;-79
2021/03/30 12:20:50;;;;;;;8.50;6.07;;;18.00;70.00;;;;;;5027674;28;20097;-78
2021/03/30 12:23:16;;;;;;;6.53;4.68;;;17.90;69.60;;;;;;5025270;28;20510;-78
2021/03/30 12:25:41;;;;;;;10.27;6.95;;;17.90;68.40;;;;;;5028149;28;20084;-76
2021/03/30 12:28:07;;;;;;;9.95;7.63;;;17.70;66.70;;;;;;5021450;28;20111;-77
2021/03/30 12:30:32;;;;;;;13.30;6.72;;;17.90;65.40;;;;;;5021563;28;20066;-78
2021/03/30 12:32:59;;;;;;;10.73;7.47;;;18.00;64.10;;;;;;5014077;28;20078;-76
2021/03/30 12:35:25;;;;;;;12.73;7.63;;;18.10;68.90;;;;;;5016363;28;20525;-77
2021/03/30 12:37:50;;;;;;;10.23;6.03;;;18.00;66.80;;;;;;5013923;28;20108;-78
2021/03/30 12:40:16;;;;;;;9.48;6.65;;;17.90;69.20;;;;;;5021952;28;20077;-77
2021/03/30 12:42:42;;;;;;;9.23;5.43;;;18.20;64.30;;;;;;5037748;28;20086;-77
2021/03/30 12:45:08;;;;;;;12.88;6.80;;;18.30;67.50;;;;;;5048133;28;20538;-74
2021/03/30 12:47:34;;;;;;;12.15;7.60;;;18.10;65.50;;;;;;5044427;28;20138;-77
2021/03/30 12:49:59;;;;;;;7.55;5.35;;;18.30;67.40;;;;;;5040227;28;20075;-76
2021/03/30 12:52:25;;;;;;;10.98;6.07;;;18.40;63.10;;;;;;5034568;28;20093;-77
2021/03/30 12:54:51;;;;;;;6.80;5.05;;;18.30;66.50;;;;;;5019429;28;20090;-77
2021/03/30 12:57:17;;;;;;;8.43;4.88;;;18.60;62.00;;;;;;5025998;28;20125;-77
2021/03/30 12:59:43;;;;;;;9.75;6.03;;;18.50;60.40;;;;;;5025812;28;20130;-77
2021/03/30 13:02:11;;;;;;;10.27;5.65;;;18.30;61.70;;;;;;5028538;28;20439;-78
2021/03/30 13:04:43;;;;;;;9.23;4.75;;;18.30;61.20;;;;;;5020142;28;20073;-78
2021/03/30 13:07:09;;;;;;;7.40;4.00;;;18.50;63.60;;;;;;5022699;28;20082;-77
2021/03/30 13:09:34;;;;;;;7.22;3.80;;;18.60;60.90;;;;;;5019242;28;20093;-77
2021/03/30 13:12:00;;;;;;;8.32;3.65;;;18.50;59.20;;;;;;5028947;28;20124;-78